createdAt,value
2018-09-04T00:00:51.698Z,25.70
2018-09-04T00:03:20.282Z,19.93
2018-09-04T00:05:48.838Z,24.23
2018-09-04T00:08:17.293Z,20.90
2018-09-04T00:10:45.777Z,21.83
2018-09-04T00:13:14.272Z,20.17
2018-09-04T00:15:42.739Z,17.57
2018-09-04T00:18:11.213Z,17.63
2018-09-04T00:20:40.310Z,20.63
2018-09-04T00:23:08.743Z,24.93
2018-09-04T00:25:37.092Z,22.63
2018-09-04T00:28:05.582Z,27.10
2018-09-04T00:30:34.140Z,29.77
2018-09-04T00:33:02.637Z,39.00
2018-09-04T00:35:31.159Z,41.97
2018-09-04T00:37:59.682Z,86.60
2018-09-04T00:40:28.171Z,44.90
2018-09-04T00:42:56.532Z,36.77
2018-09-04T00:45:25.065Z,80.43
2018-09-04T00:47:53.519Z,209.40
2018-09-04T00:50:21.873Z,223.77
2018-09-04T00:52:50.323Z,187.67
2018-09-04T00:55:18.758Z,56.30
2018-09-04T00:57:47.241Z,46.17
2018-09-04T01:00:15.750Z,142.63
2018-09-04T01:02:44.230Z,121.73
2018-09-04T01:05:12.716Z,56.27
2018-09-04T01:07:41.255Z,49.13
2018-09-04T01:10:09.694Z,34.80
2018-09-04T01:12:38.254Z,341.30
2018-09-04T01:15:06.694Z,81.40
2018-09-04T01:17:35.072Z,35.27
2018-09-04T01:20:03.640Z,80.57
2018-09-04T01:22:32.162Z,68.73
2018-09-04T01:25:00.525Z,103.70
2018-09-04T01:27:28.926Z,29.93
2018-09-04T01:29:57.385Z,44.93
2018-09-04T01:32:36.655Z,51.27
2018-09-04T01:35:05.128Z,39.50
2018-09-04T01:37:33.677Z,45.73
2018-09-04T01:40:02.054Z,66.47
2018-09-04T01:42:30.431Z,64.73
2018-09-04T01:44:58.797Z,115.93
2018-09-04T01:47:27.189Z,89.07
2018-09-04T01:49:55.601Z,129.30
2018-09-04T01:52:24.003Z,148.13
2018-09-04T01:54:52.548Z,141.43
2018-09-04T01:57:21.049Z,67.37
2018-09-04T01:59:49.499Z,55.53
2018-09-04T02:02:18.025Z,151.27
2018-09-04T02:04:46.453Z,34.47
2018-09-04T02:07:14.985Z,265.27
2018-09-04T02:09:43.465Z,444.90
2018-09-04T02:12:11.889Z,572.83
2018-09-04T02:14:40.408Z,158.03
2018-09-04T02:17:09.003Z,352.07
2018-09-04T02:19:37.451Z,303.97
2018-09-04T02:22:05.883Z,251.63
2018-09-04T02:24:34.462Z,286.13
2018-09-04T02:27:02.994Z,56.87
2018-09-04T02:29:31.411Z,133.13
2018-09-04T02:31:59.846Z,96.53
2018-09-04T02:34:28.371Z,173.87
2018-09-04T02:36:56.851Z,84.87
2018-09-04T02:39:25.428Z,301.30
2018-09-04T02:41:54.048Z,311.97
2018-09-04T02:44:22.576Z,288.47
2018-09-04T02:46:51.043Z,240.93
2018-09-04T02:49:19.477Z,220.07
2018-09-04T02:51:47.934Z,40.90
2018-09-04T02:54:16.335Z,108.27
2018-09-04T02:56:44.842Z,43.03
2018-09-04T02:59:13.443Z,120.77
2018-09-04T03:01:41.931Z,49.60
2018-09-04T03:04:10.387Z,59.43
2018-09-04T03:06:38.822Z,200.97
2018-09-04T03:09:07.529Z,116.03
2018-09-04T03:11:36.032Z,125.43
2018-09-04T03:14:04.468Z,152.20
2018-09-04T03:16:32.954Z,105.20
2018-09-04T03:19:01.389Z,168.83
2018-09-04T03:21:29.871Z,84.97
2018-09-04T03:23:58.344Z,114.87
2018-09-04T03:26:26.849Z,74.83
2018-09-04T03:28:55.177Z,63.47
2018-09-04T03:31:23.688Z,98.80
2018-09-04T03:33:52.232Z,147.93
2018-09-04T03:36:20.680Z,52.23
2018-09-04T03:38:49.100Z,63.37
2018-09-04T03:41:17.602Z,21.90
2018-09-04T03:43:46.018Z,26.40
2018-09-04T03:46:14.382Z,43.43
2018-09-04T03:48:42.896Z,34.03
2018-09-04T03:51:11.271Z,28.63
2018-09-04T03:53:39.704Z,33.57
2018-09-04T03:56:08.079Z,29.27
2018-09-04T03:58:36.419Z,33.47
2018-09-04T04:01:05.010Z,31.37
2018-09-04T04:03:33.526Z,26.00
2018-09-04T04:06:01.969Z,55.27
2018-09-04T04:08:30.405Z,27.63
2018-09-04T04:10:58.894Z,17.87
2018-09-04T04:13:27.361Z,35.93
2018-09-04T04:15:55.742Z,22.67
2018-09-04T04:18:24.328Z,51.73
2018-09-04T04:20:58.621Z,34.10
2018-09-04T04:23:27.736Z,18.80
2018-09-04T04:25:57.129Z,19.43
2018-09-04T04:28:25.989Z,22.07
2018-09-04T04:30:54.591Z,36.10
2018-09-04T04:33:23.009Z,35.97
2018-09-04T04:35:51.557Z,67.60
2018-09-04T04:38:20.475Z,38.50
2018-09-04T04:40:49.012Z,19.03
2018-09-04T04:43:17.597Z,22.30
2018-09-04T04:45:46.212Z,23.20
2018-09-04T04:48:14.638Z,27.00
2018-09-04T04:50:43.125Z,17.97
2018-09-04T04:53:11.710Z,14.87
2018-09-04T04:55:40.343Z,18.20
2018-09-04T04:58:08.822Z,15.23
2018-09-04T05:00:37.345Z,28.37
2018-09-04T05:03:05.784Z,27.43
2018-09-04T05:05:34.217Z,31.47
2018-09-04T05:08:02.693Z,29.37
2018-09-04T05:10:31.232Z,23.70
2018-09-04T05:12:59.822Z,24.43
2018-09-04T05:15:28.384Z,21.57
2018-09-04T05:17:56.870Z,20.73
2018-09-04T05:20:26.931Z,22.37
2018-09-04T05:22:55.677Z,21.20
2018-09-04T05:25:24.329Z,22.53
2018-09-04T05:27:52.880Z,21.47
2018-09-04T05:30:21.345Z,24.50
2018-09-04T05:32:54.891Z,23.30
2018-09-04T05:35:23.402Z,21.03
2018-09-04T05:37:51.938Z,21.43
2018-09-04T05:40:20.491Z,22.13
2018-09-04T05:42:52.131Z,21.40
2018-09-04T05:45:22.063Z,19.87
2018-09-04T05:47:54.585Z,20.67
2018-09-04T05:50:23.025Z,20.63
2018-09-04T05:52:51.485Z,21.63
2018-09-04T05:55:20.033Z,20.50
2018-09-04T05:57:48.442Z,24.00
2018-09-04T06:00:19.337Z,21.30
2018-09-04T06:02:47.783Z,20.97
2018-09-04T06:05:16.197Z,20.17
2018-09-04T06:07:44.766Z,22.97
2018-09-04T06:10:13.256Z,24.13
2018-09-04T06:12:41.719Z,21.23
2018-09-04T06:15:10.206Z,21.57
2018-09-04T06:17:38.751Z,21.70
2018-09-04T06:20:07.361Z,23.53
2018-09-04T06:22:35.962Z,22.17
2018-09-04T06:25:04.558Z,21.37
2018-09-04T06:27:33.013Z,21.07
2018-09-04T06:30:01.505Z,22.03
2018-09-04T06:32:29.977Z,22.37
2018-09-04T06:34:58.389Z,25.27
2018-09-04T06:37:26.859Z,20.80
2018-09-04T06:39:55.421Z,21.40
2018-09-04T06:42:23.886Z,21.53
2018-09-04T06:44:52.453Z,21.20
2018-09-04T06:47:20.833Z,26.30
2018-09-04T06:49:49.272Z,22.27
2018-09-04T06:52:17.745Z,24.30
2018-09-04T06:54:46.340Z,21.70
2018-09-04T06:57:14.717Z,16.53
2018-09-04T06:59:43.215Z,20.33
2018-09-04T07:02:11.615Z,20.53
2018-09-04T07:04:40.106Z,25.60
2018-09-04T07:07:08.590Z,26.07
2018-09-04T07:09:36.965Z,28.00
2018-09-04T07:12:05.542Z,26.50
2018-09-04T07:14:34.106Z,30.60
2018-09-04T07:17:02.670Z,31.27
2018-09-04T07:19:30.959Z,29.30
2018-09-04T07:21:59.344Z,25.90
2018-09-04T07:24:27.798Z,27.93
2018-09-04T07:26:56.258Z,27.10
2018-09-04T07:29:24.745Z,30.37
2018-09-04T07:31:53.222Z,29.47
2018-09-04T07:34:21.697Z,28.37
2018-09-04T07:36:50.202Z,27.30
2018-09-04T07:39:18.638Z,28.90
2018-09-04T07:41:47.165Z,32.83
2018-09-04T07:44:15.569Z,29.73
2018-09-04T07:46:44.043Z,27.10
2018-09-04T07:49:12.423Z,28.93
2018-09-04T07:51:40.921Z,28.83
2018-09-04T07:54:09.286Z,30.63
2018-09-04T07:56:37.814Z,29.00
2018-09-04T07:59:06.315Z,26.63
2018-09-04T08:01:34.844Z,29.80
2018-09-04T08:04:03.434Z,28.17
2018-09-04T08:06:31.835Z,29.00
2018-09-04T08:09:00.238Z,28.90
2018-09-04T08:11:28.869Z,29.90
2018-09-04T08:13:57.419Z,27.67
2018-09-04T08:16:25.911Z,30.13
2018-09-04T08:18:54.767Z,28.70
2018-09-04T08:21:23.218Z,28.70
2018-09-04T08:23:51.769Z,27.73
2018-09-04T08:26:20.254Z,25.40
2018-09-04T08:28:48.686Z,23.67
2018-09-04T08:31:17.273Z,22.93
2018-09-04T08:33:45.795Z,25.63
2018-09-04T08:36:14.286Z,26.13
2018-09-04T08:38:48.811Z,25.43
2018-09-04T08:41:17.354Z,22.87
2018-09-04T08:43:45.802Z,24.60
2018-09-04T08:46:14.322Z,23.50
2018-09-04T08:48:42.690Z,22.90
2018-09-04T08:51:11.106Z,26.07
2018-09-04T08:53:39.618Z,22.93
2018-09-04T08:56:07.947Z,25.30
2018-09-04T08:58:36.578Z,24.53
2018-09-04T09:01:04.983Z,24.57
2018-09-04T09:03:33.373Z,23.47
2018-09-04T09:06:01.897Z,21.03
2018-09-04T09:08:30.338Z,22.80
2018-09-04T09:10:58.860Z,22.93
2018-09-04T09:13:27.292Z,23.03
2018-09-04T09:15:55.814Z,19.40
2018-09-04T09:18:24.244Z,18.77
2018-09-04T09:20:52.743Z,19.43
2018-09-04T09:23:21.248Z,20.37
2018-09-04T09:25:49.715Z,18.63
2018-09-04T09:28:18.167Z,18.07
2018-09-04T09:30:46.632Z,17.97
2018-09-04T09:33:15.083Z,16.83
2018-09-04T09:35:43.557Z,16.30
2018-09-04T09:38:12.037Z,14.87
2018-09-04T09:40:40.568Z,14.63
2018-09-04T09:43:09.116Z,14.73
2018-09-04T09:45:37.624Z,14.63
2018-09-04T09:48:06.230Z,14.40
2018-09-04T09:50:34.862Z,13.70
2018-09-04T09:53:03.520Z,14.07
2018-09-04T09:55:31.754Z,13.83
2018-09-04T09:58:00.140Z,12.40
2018-09-04T10:00:34.197Z,13.23
2018-09-04T10:03:05.678Z,13.93
2018-09-04T10:05:34.150Z,11.80
2018-09-04T10:08:02.604Z,15.07
2018-09-04T10:10:31.126Z,12.93
2018-09-04T10:12:59.599Z,12.27
2018-09-04T10:15:27.992Z,11.70
2018-09-04T10:17:56.468Z,10.77
2018-09-04T10:20:24.963Z,10.03
2018-09-04T10:22:53.549Z,11.30
2018-09-04T10:25:22.006Z,10.57
2018-09-04T10:27:50.402Z,10.17
2018-09-04T10:30:18.922Z,8.53
2018-09-04T10:32:52.165Z,7.37
2018-09-04T10:35:21.277Z,7.70
2018-09-04T10:37:50.182Z,7.30
2018-09-04T10:40:23.955Z,5.80
2018-09-04T10:42:52.456Z,6.00
2018-09-04T10:45:26.091Z,5.30
2018-09-04T10:47:54.554Z,6.37
2018-09-04T10:50:22.880Z,6.57
2018-09-04T10:52:52.085Z,6.93
2018-09-04T10:55:20.666Z,6.50
2018-09-04T10:57:49.154Z,5.60
2018-09-04T11:00:17.815Z,7.93
2018-09-04T11:02:46.458Z,5.23
2018-09-04T11:05:15.145Z,6.57
2018-09-04T11:07:43.688Z,5.87
2018-09-04T11:10:12.217Z,5.40
2018-09-04T11:12:40.790Z,5.47
2018-09-04T11:15:09.320Z,5.90
2018-09-04T11:17:37.899Z,6.13
2018-09-04T11:20:06.525Z,6.17
2018-09-04T11:22:34.869Z,6.33
2018-09-04T11:25:03.297Z,5.37
2018-09-04T11:27:31.688Z,6.00
2018-09-04T11:30:00.153Z,4.87
2018-09-04T11:32:28.658Z,5.43
2018-09-04T11:34:57.029Z,6.57
2018-09-04T11:37:25.397Z,6.70
2018-09-04T11:39:54.205Z,6.27
2018-09-04T11:42:22.709Z,6.77
2018-09-04T11:44:51.298Z,6.77
2018-09-04T11:47:19.914Z,6.77
2018-09-04T11:49:48.524Z,6.23
2018-09-04T11:52:17.103Z,7.70
2018-09-04T11:54:45.474Z,6.53
2018-09-04T11:57:14.577Z,6.73
2018-09-04T11:59:43.728Z,8.23
2018-09-04T12:02:29.060Z,7.37
2018-09-04T12:04:57.473Z,7.47
2018-09-04T12:07:25.892Z,8.23
2018-09-04T12:09:54.738Z,7.53
2018-09-04T12:12:28.817Z,7.23
2018-09-04T12:14:57.228Z,6.13
2018-09-04T12:17:25.813Z,6.40
2018-09-04T12:20:10.811Z,6.30
2018-09-04T12:22:39.379Z,5.93
2018-09-04T12:25:08.483Z,6.30
2018-09-04T12:27:37.022Z,7.07
2018-09-04T12:30:05.990Z,6.40
2018-09-04T12:32:35.386Z,6.47
2018-09-04T12:35:03.783Z,6.70
2018-09-04T12:37:32.270Z,6.00
2018-09-04T12:40:01.212Z,6.90
2018-09-04T12:42:29.633Z,6.27
2018-09-04T12:44:59.722Z,6.17
2018-09-04T12:47:28.121Z,6.23
2018-09-04T12:49:57.268Z,7.27
2018-09-04T12:52:25.750Z,6.40
2018-09-04T12:54:54.433Z,6.43
2018-09-04T12:57:22.997Z,8.40
2018-09-04T12:59:52.100Z,6.60
2018-09-04T13:02:20.593Z,6.03
2018-09-04T13:04:49.320Z,5.27
2018-09-04T13:07:17.770Z,5.87
2018-09-04T13:09:46.237Z,6.13
2018-09-04T13:12:14.566Z,5.83
2018-09-04T13:14:43.384Z,6.40
2018-09-04T13:17:11.634Z,7.13
2018-09-04T13:19:40.062Z,5.80
2018-09-04T13:22:08.562Z,7.37
2018-09-04T13:24:36.933Z,7.07
2018-09-04T13:27:05.302Z,7.67
2018-09-04T13:29:33.729Z,7.17
2018-09-04T13:32:02.441Z,7.43
2018-09-04T13:34:30.943Z,6.30
2018-09-04T13:36:59.509Z,6.83
2018-09-04T13:39:28.120Z,7.10
2018-09-04T13:41:56.648Z,7.80
2018-09-04T13:44:25.131Z,5.90
2018-09-04T13:46:53.630Z,6.97
2018-09-04T13:49:22.157Z,5.90
2018-09-04T13:51:51.233Z,6.27
2018-09-04T13:54:19.847Z,6.00
2018-09-04T13:56:49.804Z,5.70
2018-09-04T13:59:18.190Z,7.80
2018-09-04T14:01:46.730Z,6.80
2018-09-04T14:04:15.243Z,5.73
2018-09-04T14:06:43.876Z,6.20
2018-09-04T14:09:12.344Z,10.53
2018-09-04T14:11:42.028Z,11.40
2018-09-04T14:14:10.555Z,7.63
2018-09-04T14:16:43.148Z,9.63
2018-09-04T14:19:07.538Z,7.23
2018-09-04T14:21:35.977Z,9.83
2018-09-04T14:24:04.513Z,6.67
2018-09-04T14:26:33.106Z,9.20
2018-09-04T14:29:08.611Z,7.10
2018-09-04T14:31:30.207Z,10.40
2018-09-04T14:33:58.653Z,8.13
2018-09-04T14:36:27.323Z,7.03
2018-09-04T14:38:56.231Z,10.57
2018-09-04T14:41:24.792Z,8.23
2018-09-04T14:43:53.367Z,9.70
2018-09-04T14:46:21.861Z,10.77
2018-09-04T14:48:50.437Z,7.50
2018-09-04T14:51:19.338Z,10.47
2018-09-04T14:53:48.036Z,7.27
2018-09-04T14:56:16.591Z,10.53
2018-09-04T14:58:45.032Z,8.33
2018-09-04T15:01:13.455Z,8.67
2018-09-04T15:03:41.857Z,7.77
2018-09-04T15:06:10.301Z,9.53
2018-09-04T15:08:38.735Z,8.50
2018-09-04T15:11:07.176Z,6.17
2018-09-04T15:13:35.562Z,12.50
2018-09-04T15:16:04.018Z,7.07
2018-09-04T15:18:32.290Z,7.20
2018-09-04T15:21:00.711Z,5.63
2018-09-04T15:23:29.134Z,6.23
2018-09-04T15:25:57.601Z,6.80
2018-09-04T15:28:29.033Z,5.60
2018-09-04T15:30:57.400Z,7.73
2018-09-04T15:33:25.830Z,11.60
2018-09-04T15:35:54.221Z,5.70
2018-09-04T15:38:22.607Z,5.23
2018-09-04T15:40:51.172Z,7.80
2018-09-04T15:43:19.696Z,6.53
2018-09-04T15:45:48.137Z,5.30
2018-09-04T15:48:16.602Z,13.07
2018-09-04T15:50:45.028Z,5.80
2018-09-04T15:53:13.454Z,6.70
2018-09-04T15:55:41.853Z,7.70
2018-09-04T15:58:10.373Z,5.30
2018-09-04T16:00:38.798Z,7.00
2018-09-04T16:03:07.237Z,6.50
2018-09-04T16:05:35.728Z,6.80
2018-09-04T16:08:04.130Z,5.70
2018-09-04T16:10:39.322Z,6.00
2018-09-04T16:13:07.670Z,5.53
2018-09-04T16:15:36.128Z,6.40
2018-09-04T16:18:04.522Z,7.03
2018-09-04T16:20:33.059Z,6.33
2018-09-04T16:23:01.655Z,6.40
2018-09-04T16:25:30.090Z,5.30
2018-09-04T16:27:58.500Z,5.57
2018-09-04T16:30:26.879Z,6.63
2018-09-04T16:32:55.294Z,5.73
2018-09-04T16:35:23.733Z,5.47
2018-09-04T16:37:52.214Z,5.00
2018-09-04T16:40:21.261Z,6.97
2018-09-04T16:42:49.872Z,7.00
2018-09-04T16:45:18.229Z,7.00
2018-09-04T16:47:46.755Z,6.83
2018-09-04T16:50:15.328Z,6.33
2018-09-04T16:52:43.679Z,7.77
2018-09-04T16:55:12.015Z,5.97
2018-09-04T16:57:40.423Z,6.73
2018-09-04T17:00:08.980Z,6.80
2018-09-04T17:02:37.468Z,6.57
2018-09-04T17:05:06.033Z,6.90
2018-09-04T17:07:34.499Z,7.40
2018-09-04T17:10:02.969Z,4.90
2018-09-04T17:12:31.658Z,5.17
2018-09-04T17:15:00.033Z,5.10
2018-09-04T17:17:28.582Z,5.50
2018-09-04T17:19:57.959Z,5.20
2018-09-04T17:22:26.366Z,7.70
2018-09-04T17:24:55.006Z,5.93
2018-09-04T17:27:23.372Z,4.73
2018-09-04T17:29:51.790Z,5.40
2018-09-04T17:32:20.326Z,5.80
2018-09-04T17:34:48.589Z,6.17
2018-09-04T17:37:17.098Z,6.63
2018-09-04T17:39:45.575Z,6.60
2018-09-04T17:42:14.082Z,6.00
2018-09-04T17:44:42.551Z,7.17
2018-09-04T17:47:10.902Z,6.00
2018-09-04T17:49:39.290Z,6.10
2018-09-04T17:52:07.746Z,6.90
2018-09-04T17:54:36.180Z,6.60
2018-09-04T17:57:04.790Z,7.90
2018-09-04T17:59:34.093Z,7.90
2018-09-04T18:02:02.520Z,8.57
2018-09-04T18:04:31.002Z,10.20
2018-09-04T18:06:59.520Z,35.40
2018-09-04T18:09:27.951Z,12.87
2018-09-04T18:11:56.413Z,10.07
2018-09-04T18:14:24.770Z,19.77
2018-09-04T18:16:53.294Z,12.67
2018-09-04T18:19:21.841Z,22.43
2018-09-04T18:21:50.551Z,19.37
2018-09-04T18:24:19.044Z,13.30
2018-09-04T18:26:47.513Z,9.50
2018-09-04T18:29:16.306Z,6.80
2018-09-04T18:31:44.749Z,6.60
2018-09-04T18:34:13.237Z,6.20
2018-09-04T18:36:41.852Z,6.20
2018-09-04T18:39:10.488Z,6.20
2018-09-04T18:41:38.912Z,6.10
2018-09-04T18:44:07.434Z,6.37
2018-09-04T18:46:35.930Z,7.93
2018-09-04T18:49:04.559Z,7.30
2018-09-04T18:51:33.003Z,7.80
2018-09-04T18:54:01.479Z,7.30
2018-09-04T18:56:30.984Z,8.03
2018-09-04T18:58:59.516Z,11.10
2018-09-04T19:01:28.037Z,7.10
2018-09-04T19:03:56.448Z,11.47
2018-09-04T19:06:24.960Z,8.17
2018-09-04T19:08:53.473Z,11.67
2018-09-04T19:11:21.977Z,24.37
2018-09-04T19:13:50.476Z,25.57
2018-09-04T19:16:18.947Z,7.20
2018-09-04T19:18:47.423Z,6.87
2018-09-04T19:21:15.905Z,6.97
2018-09-04T19:23:44.661Z,7.77
2018-09-04T19:26:13.186Z,6.50
2018-09-04T19:28:41.646Z,7.90
2018-09-04T19:31:10.161Z,6.53
2018-09-04T19:33:38.631Z,7.17
2018-09-04T19:36:07.066Z,6.73
2018-09-04T19:38:35.573Z,6.37
2018-09-04T19:41:04.111Z,7.10
2018-09-04T19:43:32.559Z,8.80
2018-09-04T19:46:01.705Z,6.60
2018-09-04T19:48:30.205Z,7.20
2018-09-04T19:50:58.655Z,7.00
2018-09-04T19:53:27.460Z,7.47
2018-09-04T19:55:55.919Z,8.00
2018-09-04T19:58:24.902Z,7.67
2018-09-04T20:00:53.342Z,9.70
2018-09-04T20:03:21.862Z,7.87
2018-09-04T20:05:50.378Z,7.23
2018-09-04T20:08:18.961Z,7.20
2018-09-04T20:10:47.465Z,7.40
2018-09-04T20:13:16.024Z,7.47
2018-09-04T20:15:44.475Z,6.83
2018-09-04T20:18:12.848Z,7.77
2018-09-04T20:20:41.312Z,7.20
2018-09-04T20:23:10.369Z,7.10
2018-09-04T20:25:39.753Z,7.00
2018-09-04T20:28:08.306Z,7.47
2018-09-04T20:30:36.791Z,8.60
2018-09-04T20:33:05.325Z,7.43
2018-09-04T20:35:33.698Z,7.13
2018-09-04T20:38:02.153Z,6.83
2018-09-04T20:40:30.510Z,7.33
2018-09-04T20:42:59.090Z,7.80
2018-09-04T20:45:27.560Z,9.43
2018-09-04T20:47:55.969Z,10.17
2018-09-04T20:50:25.277Z,8.53
2018-09-04T20:52:54.711Z,7.83
2018-09-04T20:55:23.147Z,9.70
2018-09-04T20:58:02.831Z,9.83
2018-09-04T21:00:42.317Z,8.47
2018-09-04T21:03:21.910Z,9.20
2018-09-04T21:06:01.551Z,14.63
2018-09-04T21:08:43.104Z,8.57
2018-09-04T21:11:11.598Z,8.43
2018-09-04T21:13:40.132Z,9.57
2018-09-04T21:16:08.542Z,9.30
2018-09-04T21:18:36.973Z,10.03
2018-09-04T21:21:08.038Z,9.07
2018-09-04T21:23:36.539Z,9.43
2018-09-04T21:26:05.261Z,9.83
2018-09-04T21:28:33.704Z,13.53
2018-09-04T21:31:02.254Z,8.33
2018-09-04T21:33:30.694Z,38.30
2018-09-04T21:35:59.664Z,11.43
2018-09-04T21:38:28.085Z,11.67
2018-09-04T21:40:56.465Z,12.53
2018-09-04T21:43:26.107Z,9.47
2018-09-04T21:45:54.548Z,8.80
2018-09-04T21:48:23.860Z,8.60
2018-09-04T21:50:52.578Z,8.63
2018-09-04T21:53:21.111Z,8.27
2018-09-04T21:55:49.674Z,8.23
2018-09-04T21:58:18.053Z,8.93
2018-09-04T22:00:46.524Z,20.93
2018-09-04T22:03:14.996Z,14.00
2018-09-04T22:05:43.387Z,10.07
2018-09-04T22:08:11.900Z,11.87
2018-09-04T22:10:41.341Z,8.60
2018-09-04T22:13:09.932Z,8.83
2018-09-04T22:15:38.433Z,9.40
2018-09-04T22:18:06.990Z,9.17
2018-09-04T22:20:35.690Z,8.90
2018-09-04T22:23:04.276Z,9.27
2018-09-04T22:25:32.686Z,8.97
2018-09-04T22:28:01.172Z,10.60
2018-09-04T22:30:29.749Z,9.17
2018-09-04T22:32:58.262Z,12.27
2018-09-04T22:35:27.908Z,10.67
2018-09-04T22:37:56.326Z,13.53
2018-09-04T22:40:24.909Z,12.43
2018-09-04T22:42:53.493Z,11.17
2018-09-04T22:45:22.084Z,11.53
2018-09-04T22:47:50.634Z,16.20
2018-09-04T22:51:25.596Z,14.33
2018-09-04T22:53:54.019Z,13.00
2018-09-04T22:56:22.500Z,15.30
2018-09-04T22:58:51.034Z,12.93
2018-09-04T23:01:19.650Z,8.93
2018-09-04T23:03:48.120Z,8.30
2018-09-04T23:06:16.605Z,9.50
2018-09-04T23:08:45.010Z,11.50
2018-09-04T23:11:13.472Z,12.13
2018-09-04T23:13:41.944Z,13.17
2018-09-04T23:16:10.397Z,9.73
2018-09-04T23:18:38.860Z,13.03
2018-09-04T23:21:07.316Z,9.57
2018-09-04T23:23:35.814Z,9.10
2018-09-04T23:26:06.394Z,9.77
2018-09-04T23:28:34.926Z,10.83
2018-09-04T23:31:03.917Z,10.10
2018-09-04T23:33:33.054Z,11.63
2018-09-04T23:36:01.509Z,10.87
2018-09-04T23:38:29.934Z,12.30
2018-09-04T23:40:58.352Z,10.93
2018-09-04T23:43:26.835Z,9.90
2018-09-04T23:45:55.299Z,11.53
2018-09-04T23:48:23.723Z,9.50
2018-09-04T23:50:52.150Z,10.00
2018-09-04T23:53:20.643Z,9.83
2018-09-04T23:55:49.107Z,11.00
2018-09-04T23:58:17.567Z,11.13
